Time,TemperatureF,DewpointF,PressureIn,WindDirection,WindDirectionDegrees,WindSpeedMPH,WindSpeedGustMPH,Humidity,HourlyPrecipIn,Conditions,Clouds,dailyrainin,SoftwareType,DateUTC
2013-05-05 00:01:00,34.0,27.0,-100.00,South,172,9.0,11.0,76,0.00,,,-99.99,,2013-05-05 06:01:00,
2013-05-05 00:12:00,34.0,27.0,-100.00,South,174,8.0,9.0,76,0.00,,,-99.99,,2013-05-05 06:12:00,
2013-05-05 00:21:00,33.0,26.0,-100.00,South,169,10.0,12.0,75,0.00,,,-99.99,,2013-05-05 06:21:00,
2013-05-05 00:32:00,34.0,25.0,-100.00,SSE,165,11.0,14.0,69,0.00,,,-99.99,,2013-05-05 06:32:00,
2013-05-05 00:42:00,34.0,24.0,-100.00,SSE,160,12.0,16.0,67,0.00,,,-99.99,,2013-05-05 06:42:00,
2013-05-05 00:51:00,33.0,24.0,-100.00,SSE,161,11.0,14.0,68,0.00,,,-99.99,,2013-05-05 06:51:00,
2013-05-05 01:01:00,34.0,24.0,-100.00,SSE,155,12.0,15.0,66,0.00,,,-99.99,,2013-05-05 07:01:00,
2013-05-05 01:11:00,34.0,24.0,-100.00,SSE,151,12.0,15.0,66,0.00,,,-99.99,,2013-05-05 07:11:00,
2013-05-05 01:21:00,34.0,23.0,-100.00,SSE,147,11.0,13.0,65,0.00,,,-99.99,,2013-05-05 07:21:00,
2013-05-05 01:32:00,34.0,24.0,-100.00,SE,143,9.0,12.0,66,0.00,,,-99.99,,2013-05-05 07:32:00,
2013-05-05 01:42:00,33.0,23.0,-100.00,SE,141,9.0,12.0,66,0.00,,,-99.99,,2013-05-05 07:42:00,
2013-05-05 01:52:00,33.0,23.0,-100.00,SE,127,9.0,12.0,67,0.00,,,-99.99,,2013-05-05 07:52:00,
2013-05-05 02:02:00,33.0,23.0,-100.00,ESE,123,9.0,12.0,68,0.00,,,-99.99,,2013-05-05 08:02:00,
2013-05-05 02:11:00,32.0,24.0,-100.00,ESE,121,9.0,12.0,70,0.00,,,-99.99,,2013-05-05 08:11:00,
2013-05-05 02:21:00,33.0,24.0,-100.00,SE,134,9.0,14.0,66,0.00,,,-99.99,,2013-05-05 08:21:00,
2013-05-05 02:31:00,34.0,23.0,-100.00,SE,145,12.0,17.0,64,0.00,,,-99.99,,2013-05-05 08:31:00,
2013-05-05 02:42:00,34.0,23.0,-100.00,SE,144,12.0,17.0,62,0.00,,,-99.99,,2013-05-05 08:42:00,
2013-05-05 02:53:00,34.0,21.0,-100.00,SE,145,11.0,16.0,60,0.00,,,-99.99,,2013-05-05 08:53:00,
2013-05-05 03:01:00,34.0,21.0,-100.00,SE,140,16.0,21.0,58,0.00,,,-99.99,,2013-05-05 09:01:00,
2013-05-05 03:11:00,33.0,20.0,-100.00,SE,144,16.0,20.0,58,0.00,,,-99.99,,2013-05-05 09:11:00,
2013-05-05 03:21:00,33.0,20.0,-100.00,SE,143,15.0,20.0,58,0.00,,,-99.99,,2013-05-05 09:21:00,
2013-05-05 03:32:00,33.0,20.0,-100.00,SE,145,14.0,18.0,59,0.00,,,-99.99,,2013-05-05 09:32:00,
2013-05-05 03:42:00,32.0,19.0,-100.00,SSE,147,14.0,18.0,59,0.00,,,-99.99,,2013-05-05 09:42:00,
2013-05-05 03:52:00,32.0,20.0,-100.00,SE,145,14.0,18.0,60,0.00,,,-99.99,,2013-05-05 09:52:00,
2013-05-05 04:02:00,31.0,19.0,-100.00,SSE,151,11.0,16.0,60,0.00,,,-99.99,,2013-05-05 10:02:00,
2013-05-05 04:12:00,31.0,19.0,-100.00,SSE,150,12.0,17.0,60,0.00,,,-99.99,,2013-05-05 10:12:00,
2013-05-05 04:22:00,31.0,19.0,-100.00,SSE,148,12.0,16.0,61,0.00,,,-99.99,,2013-05-05 10:22:00,
2013-05-05 04:32:00,30.0,19.0,-100.00,SE,145,12.0,15.0,63,0.00,,,-99.99,,2013-05-05 10:32:00,
2013-05-05 04:42:00,29.0,19.0,-100.00,SSE,151,9.0,12.0,65,0.00,,,-99.99,,2013-05-05 10:42:00,
2013-05-05 04:52:00,29.0,19.0,-100.00,SSE,147,9.0,12.0,64,0.00,,,-99.99,,2013-05-05 10:52:00,
2013-05-05 05:01:00,29.0,19.0,-100.00,SE,143,9.0,12.0,65,0.00,,,-99.99,,2013-05-05 11:01:00,
2013-05-05 05:12:00,29.0,19.0,-100.00,SE,140,9.0,12.0,65,0.00,,,-99.99,,2013-05-05 11:12:00,
2013-05-05 05:21:00,28.0,19.0,-100.00,SE,133,7.0,10.0,67,0.00,,,-99.99,,2013-05-05 11:21:00,
2013-05-05 05:32:00,28.0,19.0,-100.00,SE,133,7.0,9.0,68,0.00,,,-99.99,,2013-05-05 11:32:00,
2013-05-05 05:42:00,28.0,19.0,-100.00,SSE,154,7.0,9.0,68,0.00,,,-99.99,,2013-05-05 11:42:00,
2013-05-05 05:51:00,28.0,19.0,-100.00,SSE,155,7.0,9.0,69,0.00,,,-99.99,,2013-05-05 11:51:00,
2013-05-05 06:02:00,27.0,19.0,-100.00,SSE,164,7.0,10.0,69,0.00,,,-99.99,,2013-05-05 12:02:00,
2013-05-05 06:11:00,27.0,19.0,-100.00,SSE,167,9.0,10.0,71,0.00,,,-99.99,,2013-05-05 12:11:00,
2013-05-05 06:21:00,28.0,19.0,-100.00,SSE,160,7.0,9.0,69,0.00,,,-99.99,,2013-05-05 12:21:00,
2013-05-05 06:32:00,28.0,19.0,-100.00,SSE,151,7.0,9.0,70,0.00,,,-99.99,,2013-05-05 12:32:00,
2013-05-05 06:42:00,28.0,20.0,-100.00,SSE,148,6.0,7.0,69,0.00,,,-99.99,,2013-05-05 12:42:00,
2013-05-05 06:52:00,28.0,20.0,-100.00,SSE,154,6.0,7.0,70,0.00,,,-99.99,,2013-05-05 12:52:00,
2013-05-05 07:01:00,28.0,20.0,-100.00,SSE,158,4.0,6.0,70,0.00,,,-99.99,,2013-05-05 13:01:00,
2013-05-05 07:11:00,29.0,20.0,-100.00,SSE,152,5.0,7.0,71,0.00,,,-99.99,,2013-05-05 13:11:00,
2013-05-05 07:21:00,30.0,20.0,-100.00,SE,145,8.0,11.0,68,0.00,,,-99.99,,2013-05-05 13:21:00,
2013-05-05 07:32:00,30.0,20.0,-100.00,SE,144,8.0,12.0,66,0.00,,,-99.99,,2013-05-05 13:32:00,
2013-05-05 07:42:00,31.0,20.0,-100.00,SSE,148,7.0,9.0,63,0.00,,,-99.99,,2013-05-05 13:42:00,
2013-05-05 07:52:00,31.0,19.0,-100.00,SE,143,6.0,9.0,61,0.00,,,-99.99,,2013-05-05 13:52:00,
2013-05-05 08:02:00,33.0,20.0,-100.00,SE,145,6.0,8.0,61,0.00,,,-99.99,,2013-05-05 14:02:00,
2013-05-05 08:11:00,33.0,20.0,-100.00,SE,143,6.0,8.0,58,0.00,,,-99.99,,2013-05-05 14:11:00,
2013-05-05 08:21:00,34.0,19.0,-100.00,ESE,119,5.0,9.0,54,0.00,,,-99.99,,2013-05-05 14:21:00,
2013-05-05 08:31:00,34.0,18.0,-100.00,ESE,120,4.0,7.0,51,0.00,,,-99.99,,2013-05-05 14:31:00,
2013-05-05 08:42:00,35.0,20.0,-100.00,SE,131,6.0,8.0,54,0.00,,,-99.99,,2013-05-05 14:42:00,
2013-05-05 08:51:00,35.0,19.0,-100.00,SE,128,7.0,11.0,52,0.00,,,-99.99,,2013-05-05 14:51:00,
2013-05-05 09:02:00,36.0,20.0,-100.00,SE,138,7.0,11.0,51,0.00,,,-99.99,,2013-05-05 15:02:00,
2013-05-05 09:11:00,36.0,19.0,-100.00,SE,144,9.0,15.0,49,0.00,,,-99.99,,2013-05-05 15:11:00,
2013-05-05 09:21:00,38.0,21.0,-100.00,SSE,152,10.0,14.0,49,0.00,,,-99.99,,2013-05-05 15:21:00,
2013-05-05 09:33:00,39.0,21.0,-100.00,SSE,154,10.0,15.0,47,0.00,,,-99.99,,2013-05-05 15:33:00,
2013-05-05 09:43:00,40.0,21.0,-100.00,SSE,147,12.0,17.0,46,0.00,,,-99.99,,2013-05-05 15:43:00,
2013-05-05 09:53:00,40.0,20.0,-100.00,SE,140,12.0,19.0,44,0.00,,,-99.99,,2013-05-05 15:53:00,
2013-05-05 10:03:00,41.0,20.0,-100.00,SE,143,13.0,18.0,44,0.00,,,-99.99,,2013-05-05 16:03:00,
2013-05-05 10:12:00,42.0,21.0,-100.00,SE,143,13.0,18.0,43,0.00,,,-99.99,,2013-05-05 16:12:00,
2013-05-05 10:22:00,42.0,21.0,-100.00,SE,145,11.0,17.0,43,0.00,,,-99.99,,2013-05-05 16:22:00,
2013-05-05 10:32:00,42.0,21.0,-100.00,SE,143,13.0,19.0,42,0.00,,,-99.99,,2013-05-05 16:32:00,
2013-05-05 10:42:00,43.0,21.0,-100.00,SSE,147,14.0,21.0,41,0.00,,,-99.99,,2013-05-05 16:42:00,
2013-05-05 10:52:00,43.0,22.0,-100.00,SSE,152,13.0,18.0,43,0.00,,,-99.99,,2013-05-05 16:52:00,
2013-05-05 11:02:00,43.0,22.0,-100.00,SSE,160,12.0,19.0,42,0.00,,,-99.99,,2013-05-05 17:02:00,
2013-05-05 11:12:00,43.0,21.0,-100.00,SSE,158,12.0,19.0,41,0.00,,,-99.99,,2013-05-05 17:12:00,
2013-05-05 11:23:00,44.0,22.0,-100.00,SSE,147,12.0,17.0,41,0.00,,,-99.99,,2013-05-05 17:23:00,
2013-05-05 11:32:00,43.0,21.0,-100.00,SE,130,15.0,20.0,41,0.00,,,-99.99,,2013-05-05 17:32:00,
2013-05-05 11:42:00,44.0,20.0,-100.00,ESE,110,17.0,24.0,39,0.00,,,-99.99,,2013-05-05 17:42:00,
2013-05-05 11:52:00,43.0,20.0,-100.00,ESE,110,17.0,24.0,39,0.00,,,-99.99,,2013-05-05 17:52:00,
2013-05-05 12:01:00,45.0,22.0,-100.00,ESE,110,17.0,22.0,41,0.00,,,-99.99,,2013-05-05 18:01:00,
2013-05-05 12:12:00,45.0,20.0,-100.00,ESE,110,16.0,26.0,36,0.00,,,-99.99,,2013-05-05 18:12:00,
2013-05-05 12:21:00,46.0,21.0,-100.00,ESE,110,13.0,21.0,36,0.00,,,-99.99,,2013-05-05 18:21:00,
2013-05-05 12:32:00,47.0,21.0,-100.00,ESE,110,15.0,23.0,35,0.00,,,-99.99,,2013-05-05 18:32:00,
2013-05-05 12:42:00,45.0,21.0,-100.00,ESE,110,17.0,25.0,38,0.00,,,-99.99,,2013-05-05 18:42:00,
2013-05-05 12:51:00,45.0,20.0,-100.00,ESE,110,14.0,24.0,36,0.00,,,-99.99,,2013-05-05 18:51:00,
2013-05-05 13:01:00,45.0,21.0,-100.00,ESE,110,14.0,26.0,38,0.00,,,-99.99,,2013-05-05 19:01:00,
2013-05-05 13:11:00,45.0,21.0,-100.00,ESE,110,14.0,22.0,39,0.00,,,-99.99,,2013-05-05 19:11:00,
2013-05-05 13:21:00,47.0,22.0,-100.00,ESE,110,15.0,25.0,36,0.00,,,-99.99,,2013-05-05 19:21:00,
2013-05-05 13:32:00,46.0,22.0,-100.00,ESE,110,18.0,29.0,38,0.00,,,-99.99,,2013-05-05 19:32:00,
2013-05-05 13:42:00,47.0,24.0,-100.00,ESE,110,19.0,29.0,40,0.00,,,-99.99,,2013-05-05 19:42:00,
2013-05-05 13:52:00,46.0,23.0,-100.00,ESE,110,17.0,25.0,40,0.00,,,-99.99,,2013-05-05 19:52:00,
2013-05-05 14:01:00,48.0,22.0,-100.00,ESE,110,15.0,25.0,36,0.00,,,-99.99,,2013-05-05 20:01:00,
2013-05-05 14:11:00,48.0,23.0,-100.00,ESE,110,14.0,24.0,36,0.00,,,-99.99,,2013-05-05 20:11:00,
2013-05-05 14:21:00,49.0,23.0,-100.00,ESE,110,10.0,19.0,35,0.00,,,-99.99,,2013-05-05 20:21:00,
2013-05-05 14:31:00,50.0,23.0,-100.00,ESE,110,11.0,19.0,35,0.00,,,-99.99,,2013-05-05 20:31:00,
2013-05-05 14:41:00,50.0,23.0,-100.00,ESE,110,14.0,23.0,34,0.00,,,-99.99,,2013-05-05 20:41:00,
2013-05-05 14:52:00,51.0,23.0,-100.00,ESE,110,16.0,24.0,34,0.00,,,-99.99,,2013-05-05 20:52:00,
2013-05-05 15:02:00,50.0,23.0,-100.00,ESE,110,16.0,23.0,34,0.00,,,-99.99,,2013-05-05 21:02:00,
2013-05-05 15:11:00,51.0,24.0,-100.00,ESE,110,15.0,22.0,34,0.00,,,-99.99,,2013-05-05 21:11:00,
2013-05-05 15:21:00,50.0,24.0,-100.00,ESE,110,16.0,21.0,35,0.00,,,-99.99,,2013-05-05 21:21:00,
2013-05-05 15:33:00,49.0,23.0,-100.00,ESE,110,16.0,22.0,36,0.00,,,-99.99,,2013-05-05 21:33:00,
2013-05-05 15:42:00,49.0,24.0,-100.00,ESE,110,16.0,22.0,37,0.00,,,-99.99,,2013-05-05 21:42:00,
2013-05-05 15:52:00,49.0,24.0,-100.00,ESE,110,16.0,22.0,38,0.00,,,-99.99,,2013-05-05 21:52:00,
2013-05-05 16:02:00,48.0,24.0,-100.00,ESE,110,16.0,22.0,39,0.00,,,-99.99,,2013-05-05 22:02:00,
2013-05-05 16:12:00,48.0,25.0,-100.00,ESE,110,14.0,19.0,39,0.00,,,-99.99,,2013-05-05 22:12:00,
2013-05-05 16:22:00,48.0,25.0,-100.00,ESE,110,14.0,18.0,41,0.00,,,-99.99,,2013-05-05 22:22:00,
2013-05-05 16:33:00,48.0,27.0,-100.00,ESE,110,15.0,19.0,42,0.00,,,-99.99,,2013-05-05 22:33:00,
2013-05-05 16:42:00,48.0,26.0,-100.00,ESE,110,17.0,21.0,42,0.00,,,-99.99,,2013-05-05 22:42:00,
2013-05-05 16:52:00,47.0,27.0,-100.00,ESE,110,15.0,19.0,44,0.00,,,-99.99,,2013-05-05 22:52:00,
2013-05-05 17:02:00,47.0,27.0,-100.00,ESE,110,15.0,19.0,45,0.00,,,-99.99,,2013-05-05 23:02:00,
2013-05-05 17:11:00,47.0,27.0,-100.00,ESE,110,15.0,19.0,45,0.00,,,-99.99,,2013-05-05 23:11:00,
2013-05-05 17:21:00,47.0,29.0,-100.00,ESE,110,14.0,18.0,49,0.00,,,-99.99,,2013-05-05 23:21:00,
2013-05-05 17:32:00,46.0,29.0,-100.00,ESE,110,15.0,21.0,51,0.00,,,-99.99,,2013-05-05 23:32:00,
2013-05-05 17:42:00,46.0,29.0,-100.00,ESE,110,14.0,19.0,51,0.00,,,-99.99,,2013-05-05 23:42:00,
2013-05-05 17:52:00,46.0,31.0,-100.00,ESE,110,10.0,18.0,56,0.00,,,-99.99,,2013-05-05 23:52:00,
2013-05-05 18:01:00,46.0,29.0,-100.00,ESE,110,9.0,17.0,51,0.01,,,-99.99,,2013-05-06 00:01:00,
2013-05-05 18:11:00,46.0,31.0,-100.00,ESE,110,9.0,17.0,55,0.01,,,-99.99,,2013-05-06 00:11:00,
2013-05-05 18:21:00,47.0,32.0,-100.00,ESE,110,4.0,9.0,56,0.00,,,-99.99,,2013-05-06 00:21:00,
2013-05-05 18:31:00,47.0,31.0,-100.00,ESE,110,3.0,4.0,53,0.00,,,-99.99,,2013-05-06 00:31:00,
2013-05-05 18:41:00,47.0,31.0,-100.00,ESE,110,7.0,14.0,53,0.00,,,-99.99,,2013-05-06 00:41:00,
2013-05-05 18:51:00,47.0,31.0,-100.00,ESE,110,9.0,16.0,54,0.00,,,-99.99,,2013-05-06 00:51:00,
2013-05-05 19:01:00,47.0,32.0,-100.00,ESE,110,7.0,11.0,54,0.00,,,-99.99,,2013-05-06 01:01:00,
2013-05-05 19:11:00,47.0,32.0,-100.00,ESE,110,5.0,11.0,55,0.00,,,-99.99,,2013-05-06 01:11:00,
2013-05-05 19:21:00,46.0,32.0,-100.00,ESE,110,7.0,9.0,58,0.00,,,-99.99,,2013-05-06 01:21:00,
2013-05-05 19:31:00,46.0,33.0,-100.00,ESE,110,7.0,10.0,60,0.00,,,-99.99,,2013-05-06 01:31:00,
2013-05-05 19:41:00,45.0,33.0,-100.00,ESE,110,7.0,11.0,62,0.00,,,-99.99,,2013-05-06 01:41:00,
2013-05-05 19:52:00,45.0,33.0,-100.00,ESE,110,6.0,9.0,62,0.00,,,-99.99,,2013-05-06 01:52:00,
2013-05-05 20:01:00,45.0,33.0,-100.00,ESE,110,6.0,7.0,63,0.00,,,-99.99,,2013-05-06 02:01:00,
2013-05-05 20:12:00,45.0,34.0,-100.00,ESE,110,6.0,9.0,65,0.00,,,-99.99,,2013-05-06 02:12:00,
2013-05-05 20:21:00,43.0,30.0,-100.00,ESE,110,11.0,16.0,59,0.00,,,-99.99,,2013-05-06 02:21:00,
2013-05-05 20:32:00,42.0,30.0,-100.00,ESE,110,12.0,16.0,61,0.00,,,-99.99,,2013-05-06 02:32:00,
2013-05-05 20:42:00,42.0,30.0,-100.00,ESE,110,12.0,14.0,63,0.00,,,-99.99,,2013-05-06 02:42:00,
2013-05-05 20:51:00,41.0,31.0,-100.00,ESE,110,12.0,14.0,65,0.00,,,-99.99,,2013-05-06 02:51:00,
2013-05-05 21:02:00,41.0,31.0,-100.00,ESE,110,11.0,14.0,67,0.00,,,-99.99,,2013-05-06 03:02:00,
2013-05-05 21:11:00,41.0,31.0,-100.00,ESE,110,11.0,14.0,68,0.00,,,-99.99,,2013-05-06 03:11:00,
2013-05-05 21:22:00,41.0,31.0,-100.00,ESE,110,9.0,12.0,67,0.00,,,-99.99,,2013-05-06 03:22:00,
2013-05-05 21:33:00,40.0,31.0,-100.00,ESE,110,9.0,12.0,71,0.00,,,-99.99,,2013-05-06 03:33:00,
2013-05-05 21:42:00,40.0,31.0,-100.00,ESE,110,9.0,12.0,72,0.00,,,-99.99,,2013-05-06 03:42:00,
2013-05-05 21:52:00,40.0,32.0,-100.00,ESE,110,11.0,13.0,72,0.00,,,-99.99,,2013-05-06 03:52:00,
2013-05-05 22:02:00,40.0,32.0,-100.00,ESE,110,10.0,12.0,72,0.00,,,-99.99,,2013-05-06 04:02:00,
2013-05-05 22:12:00,40.0,31.0,-100.00,ESE,110,9.0,12.0,71,0.00,,,-99.99,,2013-05-06 04:12:00,
2013-05-05 22:23:00,40.0,31.0,-100.00,ESE,110,7.0,11.0,70,0.00,,,-99.99,,2013-05-06 04:23:00,
2013-05-05 22:32:00,40.0,30.0,-100.00,ESE,110,7.0,9.0,70,0.00,,,-99.99,,2013-05-06 04:32:00,
2013-05-05 22:42:00,39.0,30.0,-100.00,ESE,110,4.0,7.0,72,0.00,,,-99.99,,2013-05-06 04:42:00,
2013-05-05 22:52:00,39.0,30.0,-100.00,ESE,110,2.0,4.0,71,0.00,,,-99.99,,2013-05-06 04:52:00,
2013-05-05 23:02:00,38.0,30.0,-100.00,ESE,110,1.0,3.0,74,0.00,,,-99.99,,2013-05-06 05:02:00,
2013-05-05 23:12:00,39.0,32.0,-100.00,ESE,110,4.0,9.0,75,0.00,,,-99.99,,2013-05-06 05:12:00,
2013-05-05 23:22:00,38.0,32.0,-100.00,SE,126,4.0,8.0,76,0.00,,,-99.99,,2013-05-06 05:22:00,
2013-05-05 23:32:00,38.0,32.0,-100.00,SE,145,6.0,14.0,79,0.00,,,-99.99,,2013-05-06 05:32:00,
2013-05-05 23:42:00,38.0,32.0,-100.00,SSE,147,11.0,14.0,77,0.00,,,-99.99,,2013-05-06 05:42:00,
2013-05-05 23:52:00,38.0,31.0,-100.00,SE,145,11.0,15.0,77,0.00,,,-99.99,,2013-05-06 05:52:00,